Stonewall, Oklahoma
Current Conditions -  °F | °C
As of 5:35 AM on Thursday 18 Dec 2014 (Local Time) from KADH Reporting Station
Haze Haze  
Wind Chill: 34°   Ceiling: 200
Heat Index: 37°   Visibility: 1mi
Dew Point: 37°   Wind: 5mph
Humidity: 100%   Direction: 130°SE
Pressure: 30.13"   Gusts: NA
Location:  34.65°N, 96.53°W
Report Text: KADH 181135Z AUTO 13004KT 1SM BR OVC002 03/03 A3013 RMK AO2
Loading
Personal Weather Stations






























Interactive Weather Map New forecast layout! Learn more

10-Day Weather Forecast

Advertisements
Track Severe Weather on mobile